Time;durP1;ratioP1;P1;durP2;ratioP2;P2;SDS_P1;SDS_P2;PMS_P1;PMS_P2;Temp;Humidity;BMP_temperature;BMP_pressure;BME280_temperature;BME280_humidity;BME280_pressure;Samples;Min_cycle;Max_cycle;Signal;HPM_P1;HPM_P2
2023/04/23 00:00:07;;;;;;;27.98;10.98;;;;;;;9.72;42.14;99574.91;5093422;28;20062;-50
2023/04/23 00:02:34;;;;;;;27.25;11.45;;;;;;;9.55;42.33;99553.06;5093474;28;20034;-56
2023/04/23 00:05:04;;;;;;;26.20;10.70;;;;;;;9.51;42.59;99546.28;5092706;28;20081;-55
2023/04/23 00:07:32;;;;;;;20.60;10.73;;;;;;;9.62;42.64;99572.97;5093348;28;20111;-50
2023/04/23 00:09:59;;;;;;;26.70;10.95;;;;;;;9.41;42.68;99540.81;5075487;28;20032;-55
2023/04/23 00:12:26;;;;;;;30.00;11.88;;;;;;;9.56;42.46;99576.16;5093528;28;20031;-55
2023/04/23 00:14:52;;;;;;;22.90;11.00;;;;;;;9.57;42.67;99572.50;5093429;28;20034;-60
2023/04/23 00:17:18;;;;;;;28.88;12.07;;;;;;;9.54;42.98;99574.59;5075325;28;20036;-55
2023/04/23 00:19:45;;;;;;;23.02;11.32;;;;;;;9.55;42.39;99581.63;5092913;28;20035;-56
2023/04/23 00:22:12;;;;;;;23.23;11.68;;;;;;;9.53;42.49;99587.09;5093295;28;20043;-53
2023/04/23 00:24:38;;;;;;;21.38;11.48;;;;;;;9.46;42.80;99580.53;5075372;28;20035;-52
2023/04/23 00:27:04;;;;;;;22.38;11.63;;;;;;;9.48;42.78;99583.94;5092806;28;20059;-55
2023/04/23 00:29:30;;;;;;;22.38;11.77;;;;;;;9.50;42.65;99591.81;5093237;28;20100;-55
2023/04/23 00:31:55;;;;;;;22.25;10.40;;;;;;;9.47;42.78;99587.59;5092446;28;20031;-52
2023/04/23 00:34:21;;;;;;;23.85;11.63;;;;;;;9.33;42.94;99568.16;5093251;28;20371;-54
2023/04/23 00:36:46;;;;;;;22.70;10.88;;;;;;;9.45;42.38;99587.69;5092808;28;20100;-51
2023/04/23 00:39:12;;;;;;;22.92;11.00;;;;;;;9.42;42.73;99592.47;5075229;28;20079;-54
2023/04/23 00:41:40;;;;;;;19.25;10.77;;;;;;;9.40;42.87;99591.69;5093036;28;20403;-55
2023/04/23 00:44:06;;;;;;;20.33;10.68;;;;;;;9.21;43.08;99566.47;5092913;28;20046;-51
2023/04/23 00:46:31;;;;;;;18.63;10.55;;;;;;;9.38;42.86;99590.97;5074265;28;20032;-51
2023/04/23 00:48:58;;;;;;;18.42;11.10;;;;;;;9.33;43.06;99588.69;5092875;28;20036;-50
2023/04/23 00:51:24;;;;;;;24.23;11.10;;;;;;;9.36;43.07;99595.59;5092820;28;20032;-56
2023/04/23 00:53:50;;;;;;;18.20;11.40;;;;;;;9.34;43.00;99599.25;5092684;28;20111;-54
2023/04/23 00:56:17;;;;;;;20.85;10.43;;;;;;;9.32;43.22;99608.38;5092726;28;20106;-58
2023/04/23 00:58:43;;;;;;;18.95;10.50;;;;;;;9.29;43.20;99606.78;5092954;28;20060;-55
2023/04/23 01:01:11;;;;;;;23.10;10.75;;;;;;;9.30;43.11;99613.81;5075104;28;20367;-56
2023/04/23 01:03:38;;;;;;;17.00;10.38;;;;;;;9.27;43.51;99613.19;5074832;28;20466;-55
2023/04/23 01:06:04;;;;;;;18.80;10.43;;;;;;;9.15;43.42;99596.31;5092079;28;20405;-55
2023/04/23 01:08:31;;;;;;;20.35;10.55;;;;;;;9.23;43.50;99603.72;5092464;28;20031;-53
2023/04/23 01:10:57;;;;;;;20.80;10.35;;;;;;;9.21;43.53;99611.03;5092609;28;20032;-55
2023/04/23 01:13:25;;;;;;;21.83;10.60;;;;;;;9.19;43.62;99605.81;5074997;28;20046;-52
2023/04/23 01:15:51;;;;;;;18.17;10.00;;;;;;;9.16;43.60;99606.91;5092418;28;20036;-57
2023/04/23 01:18:18;;;;;;;19.67;10.43;;;;;;;9.00;43.52;99585.88;5092643;28;20119;-57
2023/04/23 01:20:44;;;;;;;19.13;9.85;;;;;;;9.05;43.81;99605.06;5092547;28;20024;-54
2023/04/23 01:23:10;;;;;;;23.35;10.75;;;;;;;9.11;43.92;99602.88;5092171;28;20122;-56
2023/04/23 01:25:36;;;;;;;18.98;10.07;;;;;;;9.11;43.97;99616.22;5092093;28;20028;-53
2023/04/23 01:28:03;;;;;;;18.80;9.75;;;;;;;8.91;43.68;99578.56;5092739;28;20366;-52
2023/04/23 01:30:29;;;;;;;22.08;9.85;;;;;;;9.12;43.75;99613.44;5074703;28;20036;-55
2023/04/23 01:32:55;;;;;;;15.93;9.80;;;;;;;9.08;43.95;99612.00;5092613;28;20036;-54
2023/04/23 01:35:22;;;;;;;23.65;10.05;;;;;;;9.09;43.78;99620.84;5092490;28;20039;-52
2023/04/23 01:37:50;;;;;;;23.27;9.98;;;;;;;9.05;43.76;99620.25;5091908;28;20043;-51
2023/04/23 01:40:16;;;;;;;21.88;10.20;;;;;;;9.01;44.18;99608.94;5091843;28;20040;-54
2023/04/23 01:42:42;;;;;;;18.88;10.20;;;;;;;9.02;43.99;99610.66;5094409;28;20040;-52
2023/04/23 01:45:08;;;;;;;18.90;10.30;;;;;;;9.04;44.16;99618.50;5095854;28;20016;-58
2023/04/23 01:47:34;;;;;;;18.23;9.98;;;;;;;9.01;43.92;99619.63;5096001;28;20028;-53
2023/04/23 01:50:00;;;;;;;15.25;9.50;;;;;;;9.01;44.12;99616.09;5096258;28;20106;-58
2023/04/23 01:52:26;;;;;;;19.67;9.30;;;;;;;9.00;44.10;99612.59;5096362;28;20447;-55
2023/04/23 01:54:51;;;;;;;17.83;9.32;;;;;;;8.99;44.13;99621.56;5095634;28;20036;-53
2023/04/23 01:57:22;;;;;;;18.88;9.27;;;;;;;8.82;44.09;99597.97;5095861;28;20036;-57
2023/04/23 01:59:57;;;;;;;15.85;8.73;;;;;;;8.85;44.20;99597.75;5078091;28;20123;-56
2023/04/23 02:02:24;;;;;;;14.50;8.37;;;;;;;8.93;44.31;99616.72;5096101;28;20319;-55
2023/04/23 02:04:52;;;;;;;14.95;8.88;;;;;;;8.92;44.59;99620.31;5095760;28;20024;-52
2023/04/23 02:07:17;;;;;;;18.15;8.80;;;;;;;8.76;44.25;99597.50;5094717;28;20024;-56
2023/04/23 02:09:43;;;;;;;15.48;8.55;;;;;;;8.84;44.81;99598.72;5094977;28;20035;-55
2023/04/23 02:12:08;;;;;;;19.17;9.05;;;;;;;9.05;44.06;99631.75;5095371;28;20427;-55
2023/04/23 02:14:34;;;;;;;13.68;8.70;;;;;;;8.93;43.85;99600.69;5095383;28;20052;-56
2023/04/23 02:17:01;;;;;;;23.98;9.43;;;;;;;9.11;44.11;99618.91;5095883;28;20028;-56
2023/04/23 02:19:27;;;;;;;17.90;9.85;;;;;;;9.24;43.90;99632.16;5094922;28;20023;-54
2023/04/23 02:21:52;;;;;;;19.73;9.48;;;;;;;9.33;44.01;99636.78;5094398;28;20036;-52
2023/04/23 02:24:18;;;;;;;19.25;9.88;;;;;;;9.44;43.51;99639.44;5077537;28;20031;-54
2023/04/23 02:26:43;;;;;;;19.45;9.80;;;;;;;9.58;43.21;99632.16;5095549;28;20123;-49
2023/04/23 02:29:09;;;;;;;16.58;9.40;;;;;;;9.69;43.26;99625.97;5094951;28;20031;-52
2023/04/23 02:31:34;;;;;;;17.63;9.13;;;;;;;9.83;43.11;99631.03;5094707;28;20040;-52
2023/04/23 02:34:00;;;;;;;19.13;9.63;;;;;;;10.00;42.39;99634.16;5095430;28;20054;-53
2023/04/23 02:36:27;;;;;;;18.00;9.05;;;;;;;10.17;42.23;99639.00;5095730;28;20034;-55
2023/04/23 02:38:53;;;;;;;14.93;8.82;;;;;;;10.27;41.44;99633.75;5076664;28;20038;-55
2023/04/23 02:41:18;;;;;;;14.57;8.70;;;;;;;10.47;41.33;99640.13;5076922;28;20031;-54
2023/04/23 02:43:44;;;;;;;23.08;9.32;;;;;;;10.64;41.12;99640.56;5095337;28;20101;-54
2023/04/23 02:46:10;;;;;;;24.73;9.10;;;;;;;10.72;40.84;99619.34;5095271;28;20461;-51
2023/04/23 02:48:40;;;;;;;16.52;8.45;;;;;;;11.01;40.15;99637.44;5094250;28;20539;-57
2023/04/23 02:51:10;;;;;;;16.08;8.10;;;;;;;11.11;39.93;99631.28;5094794;28;20101;-50
2023/04/23 02:53:36;;;;;;;14.23;8.35;;;;;;;11.39;39.25;99642.31;5094067;28;20392;-55
2023/04/23 02:56:02;;;;;;;13.95;9.02;;;;;;;11.56;39.27;99624.72;5076783;28;20100;-53
2023/04/23 02:58:29;;;;;;;12.90;7.88;;;;;;;11.77;38.68;99640.75;5094533;28;20039;-52
2023/04/23 03:00:54;;;;;;;18.58;9.00;;;;;;;11.94;38.45;99643.75;5077012;28;20351;-55
2023/04/23 03:03:20;;;;;;;16.95;8.90;;;;;;;11.92;37.83;99617.06;5094831;28;20827;-53
2023/04/23 03:05:46;;;;;;;20.88;8.90;;;;;;;12.25;37.81;99639.19;5094866;28;20089;-55
2023/04/23 03:08:12;;;;;;;15.55;7.85;;;;;;;12.41;37.10;99652.06;5094073;28;20513;-52
2023/04/23 03:10:37;;;;;;;17.15;8.93;;;;;;;12.58;36.84;99657.75;5094243;28;20096;-54
2023/04/23 03:13:03;;;;;;;14.45;8.48;;;;;;;12.68;36.55;99660.44;5094630;28;20092;-56
2023/04/23 03:15:29;;;;;;;18.92;8.40;;;;;;;12.74;36.50;99657.16;5094556;28;20107;-54
2023/04/23 03:17:54;;;;;;;22.17;8.65;;;;;;;12.77;36.39;99663.09;5093927;28;20028;-54
2023/04/23 03:20:20;;;;;;;23.08;8.82;;;;;;;12.88;36.13;99658.56;5094063;28;20132;-56
2023/04/23 03:22:45;;;;;;;21.58;9.40;;;;;;;12.99;36.02;99655.72;5094163;28;20050;-56
2023/04/23 03:25:11;;;;;;;20.23;9.80;;;;;;;13.12;35.97;99668.00;5093575;28;20036;-52
2023/04/23 03:27:40;;;;;;;20.25;8.90;;;;;;;13.20;35.69;99669.00;5093987;28;20028;-51
2023/04/23 03:30:07;;;;;;;20.08;8.43;;;;;;;13.26;35.51;99667.56;5094139;28;20132;-56
2023/04/23 03:32:34;;;;;;;20.50;9.32;;;;;;;13.24;35.42;99663.31;5094027;28;20093;-52
2023/04/23 03:34:59;;;;;;;24.52;9.63;;;;;;;13.38;35.42;99675.44;5094129;28;20332;-50
2023/04/23 03:37:26;;;;;;;19.55;9.32;;;;;;;13.47;35.11;99682.66;5093545;28;20113;-56
2023/04/23 03:39:52;;;;;;;26.73;9.48;;;;;;;13.61;35.13;99682.19;5076058;28;20044;-57
2023/04/23 03:42:17;;;;;;;19.23;8.80;;;;;;;13.76;34.74;99679.88;5093561;28;20097;-54
2023/04/23 03:44:43;;;;;;;18.67;9.45;;;;;;;13.80;34.46;99648.16;5093833;28;20036;-56
2023/04/23 03:47:08;;;;;;;17.50;8.50;;;;;;;14.19;34.54;99690.97;5093985;28;20035;-55
2023/04/23 03:49:34;;;;;;;20.02;8.80;;;;;;;14.44;33.87;99683.16;5093297;28;20028;-59
2023/04/23 03:52:00;;;;;;;17.77;8.93;;;;;;;14.74;33.22;99689.25;5093728;28;20032;-55
2023/04/23 03:54:27;;;;;;;20.48;8.80;;;;;;;15.04;32.59;99686.25;5075983;28;20115;-58
2023/04/23 03:56:53;;;;;;;24.77;8.82;;;;;;;15.40;31.85;99697.00;5093456;28;20024;-55
2023/04/23 03:59:19;;;;;;;19.08;8.38;;;;;;;15.87;31.19;99689.50;5093228;28;20443;-56
2023/04/23 04:01:47;;;;;;;18.00;7.82;;;;;;;16.58;30.53;99691.91;5093771;28;20036;-54
2023/04/23 04:04:13;;;;;;;14.93;7.95;;;;;;;18.01;27.93;99704.19;5093486;28;20039;-53
2023/04/23 04:06:40;;;;;;;14.90;8.20;;;;;;;19.18;26.05;99699.72;5092503;28;20024;-51
2023/04/23 04:09:07;;;;;;;17.25;7.80;;;;;;;19.06;25.73;99676.75;5055372;28;20033;-55
2023/04/23 04:11:33;;;;;;;16.73;7.90;;;;;;;18.95;25.77;99705.13;5073497;28;20093;-54
2023/04/23 04:13:59;;;;;;;13.48;7.03;;;;;;;18.74;26.22;99694.97;5072882;28;20028;-53
2023/04/23 04:16:24;;;;;;;13.55;6.75;;;;;;;18.55;26.55;99696.25;5072831;28;20043;-57
2023/04/23 04:18:50;;;;;;;12.95;7.00;;;;;;;18.35;26.34;99702.16;5084849;28;20451;-55
2023/04/23 04:21:17;;;;;;;16.98;7.47;;;;;;;18.15;27.03;99709.84;5093453;28;20450;-54
2023/04/23 04:23:44;;;;;;;16.95;7.50;;;;;;;17.99;27.18;99716.16;5093037;28;20339;-55
2023/04/23 04:26:09;;;;;;;16.90;7.30;;;;;;;17.87;27.25;99713.84;5092738;28;20028;-51
2023/04/23 04:28:36;;;;;;;16.35;7.03;;;;;;;17.77;27.30;99713.19;5093089;28;20462;-53
2023/04/23 04:31:04;;;;;;;16.17;7.65;;;;;;;17.56;27.59;99711.03;5093465;28;20028;-56
2023/04/23 04:33:30;;;;;;;14.82;7.35;;;;;;;17.36;27.58;99701.44;5092842;28;20131;-57
2023/04/23 04:35:56;;;;;;;18.02;7.45;;;;;;;17.38;27.87;99716.66;5092693;28;20143;-57
2023/04/23 04:38:21;;;;;;;14.13;7.30;;;;;;;17.33;28.28;99717.16;5092773;28;20020;-54
2023/04/23 04:40:50;;;;;;;15.18;6.97;;;;;;;17.30;28.38;99721.03;5092719;28;20151;-55
2023/04/23 04:43:16;;;;;;;16.05;7.30;;;;;;;17.30;28.45;99722.94;5074915;28;20087;-54
2023/04/23 04:45:43;;;;;;;16.40;7.35;;;;;;;17.26;28.25;99721.59;5092470;28;20458;-55
2023/04/23 04:48:09;;;;;;;19.13;8.02;;;;;;;17.26;27.59;99725.13;5092389;28;20031;-55
2023/04/23 04:50:34;;;;;;;15.25;7.75;;;;;;;17.29;27.84;99721.25;5093220;28;20365;-55
2023/04/23 04:53:00;;;;;;;16.75;7.57;;;;;;;17.44;27.67;99724.91;5092341;28;20139;-56
2023/04/23 04:55:26;;;;;;;16.95;8.32;;;;;;;17.53;27.63;99728.47;5074492;28;20040;-55
2023/04/23 04:58:11;;;;;;;20.77;7.53;;;;;;;17.72;27.64;99734.53;5092290;28;20036;-54
2023/04/23 05:00:36;;;;;;;17.13;7.38;;;;;;;18.03;27.09;99728.34;5093057;28;20043;-55
2023/04/23 05:03:02;;;;;;;20.00;7.70;;;;;;;18.10;26.51;99705.00;5092827;28;20424;-52
2023/04/23 05:05:28;;;;;;;18.55;8.27;;;;;;;18.47;26.27;99735.13;5092418;28;20065;-54
2023/04/23 05:07:54;;;;;;;18.45;7.70;;;;;;;18.58;26.24;99732.00;5092354;28;20446;-55
2023/04/23 05:10:20;;;;;;;15.18;7.13;;;;;;;18.63;25.77;99735.00;5092588;28;20423;-55
2023/04/23 05:12:46;;;;;;;13.35;7.30;;;;;;;18.59;26.05;99732.84;5092252;28;20355;-55
2023/04/23 05:15:13;;;;;;;16.63;7.22;;;;;;;18.55;26.21;99742.34;5053974;28;20040;-54
2023/04/23 05:17:40;;;;;;;13.55;7.20;;;;;;;18.51;26.09;99748.13;5087884;28;20439;-58
2023/04/23 05:20:10;;;;;;;17.77;7.65;;;;;;;18.57;26.28;99751.19;5096881;28;20063;-51
2023/04/23 05:22:40;;;;;;;18.00;7.70;;;;;;;18.68;25.89;99749.91;5078859;28;20454;-52
2023/04/23 05:25:07;;;;;;;19.92;7.53;;;;;;;18.74;25.71;99732.94;5096360;28;20166;-53
2023/04/23 05:27:33;;;;;;;16.23;8.05;;;;;;;19.21;25.32;99755.50;5096437;28;20020;-55
2023/04/23 05:30:01;;;;;;;20.13;8.57;;;;;;;20.09;24.36;99763.16;5096564;28;20055;-55
2023/04/23 05:32:29;;;;;;;20.40;8.20;;;;;;;23.12;20.68;99740.09;5096370;28;20524;-55
2023/04/23 05:34:55;;;;;;;17.02;8.07;;;;;;;24.21;19.40;99751.59;5096153;28;20468;-56
2023/04/23 05:37:20;;;;;;;18.98;7.78;;;;;;;24.80;18.44;99734.28;5078392;28;20032;-54
2023/04/23 05:39:46;;;;;;;23.20;7.78;;;;;;;25.61;18.11;99745.50;5095800;28;20052;-51
2023/04/23 05:42:12;;;;;;;21.85;7.50;;;;;;;25.77;17.15;99755.03;5096466;28;20128;-56
2023/04/23 05:44:37;;;;;;;24.55;8.00;;;;;;;25.87;17.40;99754.53;5096173;28;20036;-53
2023/04/23 05:47:03;;;;;;;21.30;7.63;;;;;;;25.79;17.50;99750.16;5095797;28;20310;-55
2023/04/23 05:49:29;;;;;;;15.10;7.63;;;;;;;25.75;17.16;99756.31;5096505;28;20028;-52
2023/04/23 05:51:54;;;;;;;17.88;7.45;;;;;;;26.32;16.92;99756.16;5095894;28;20028;-51
2023/04/23 05:54:20;;;;;;;15.65;7.13;;;;;;;26.93;15.90;99753.47;5095664;28;20117;-51
2023/04/23 05:56:46;;;;;;;17.38;7.32;;;;;;;27.30;15.70;99744.22;5095628;28;20036;-54
2023/04/23 05:59:11;;;;;;;14.73;7.18;;;;;;;27.93;15.62;99754.78;5078311;28;20331;-59
2023/04/23 06:01:37;;;;;;;14.52;7.15;;;;;;;28.55;14.90;99760.78;5095930;28;20039;-52
2023/04/23 06:04:03;;;;;;;16.98;7.50;;;;;;;28.66;14.57;99759.88;5077577;28;20438;-54
2023/04/23 06:06:28;;;;;;;13.82;6.82;;;;;;;28.42;14.89;99737.94;5077828;28;20032;-53
2023/04/23 06:08:53;;;;;;;15.23;7.25;;;;;;;28.15;14.78;99751.41;5095809;28;20081;-53
2023/04/23 06:11:20;;;;;;;18.67;8.13;;;;;;;27.99;15.07;99770.31;5095774;28;20028;-54
2023/04/23 06:13:46;;;;;;;17.83;7.15;;;;;;;27.73;15.22;99774.41;5095717;28;20027;-56
2023/04/23 06:16:11;;;;;;;18.67;6.88;;;;;;;27.54;15.19;99759.94;5077684;28;20169;-58
2023/04/23 06:18:38;;;;;;;12.68;7.63;;;;;;;27.54;15.15;99763.53;5095474;28;20032;-54
2023/04/23 06:21:04;;;;;;;16.13;7.30;;;;;;;27.47;15.30;99771.00;5077344;28;20032;-54
2023/04/23 06:23:31;;;;;;;14.63;7.40;;;;;;;27.37;15.24;99777.94;5095319;28;20027;-51
2023/04/23 06:25:57;;;;;;;15.55;6.32;;;;;;;27.70;14.81;99777.63;5095291;28;20035;-54
2023/04/23 06:28:22;;;;;;;11.32;7.07;;;;;;;27.90;14.95;99780.84;5093370;28;20036;-54
2023/04/23 06:30:48;;;;;;;15.82;7.28;;;;;;;28.09;14.84;99780.72;5094928;28;20158;-53
2023/04/23 06:33:14;;;;;;;12.25;7.03;;;;;;;28.07;14.76;99774.63;5095269;28;20119;-55
2023/04/23 06:35:39;;;;;;;14.23;7.07;;;;;;;27.88;15.07;99783.00;5095061;28;20024;-55
2023/04/23 06:38:05;;;;;;;19.95;8.02;;;;;;;27.58;15.21;99775.72;5095373;28;20042;-57
2023/04/23 06:40:32;;;;;;;12.20;7.53;;;;;;;27.04;15.95;99782.06;5094739;28;20044;-53
2023/04/23 06:42:58;;;;;;;13.40;8.30;;;;;;;26.60;16.01;99789.59;5095116;28;20161;-56
2023/04/23 06:45:23;;;;;;;21.42;9.20;;;;;;;26.27;16.42;99793.56;5094373;28;20111;-57
2023/04/23 06:47:49;;;;;;;19.60;9.77;;;;;;;26.13;16.57;99790.09;5077048;28;20446;-57
2023/04/23 06:50:16;;;;;;;20.60;9.00;;;;;;;26.03;16.29;99798.84;5095018;28;20089;-58
2023/04/23 06:52:42;;;;;;;18.98;10.57;;;;;;;25.79;16.68;99801.41;5094976;28;20039;-52
2023/04/23 06:55:08;;;;;;;20.45;10.73;;;;;;;25.62;16.87;99793.78;5094562;28;20028;-55
2023/04/23 06:57:34;;;;;;;17.65;11.25;;;;;;;25.56;16.98;99793.81;5094753;28;20057;-54
2023/04/23 07:00:00;;;;;;;24.42;11.77;;;;;;;25.46;17.27;99791.53;5094563;28;20028;-54
2023/04/23 07:02:25;;;;;;;24.52;11.48;;;;;;;25.54;17.32;99796.78;5076770;28;20090;-57
2023/04/23 07:04:51;;;;;;;19.60;11.52;;;;;;;25.58;17.53;99789.81;5076670;28;20059;-54
2023/04/23 07:07:17;;;;;;;32.60;13.20;;;;;;;25.91;16.94;99794.13;5093930;28;20066;-58
2023/04/23 07:09:42;;;;;;;27.52;13.15;;;;;;;26.51;16.67;99803.63;5093818;28;20152;-55
2023/04/23 07:12:08;;;;;;;24.98;15.38;;;;;;;26.57;15.92;99801.88;5092828;28;20055;-55
2023/04/23 07:14:33;;;;;;;21.88;13.60;;;;;;;26.43;16.21;99795.69;5092744;28;20091;-56
2023/04/23 07:16:59;;;;;;;26.27;14.98;;;;;;;26.42;16.39;99799.53;5075084;28;20077;-57
2023/04/23 07:19:26;;;;;;;22.60;13.65;;;;;;;26.32;16.66;99797.31;5092715;28;20024;-58
2023/04/23 07:21:52;;;;;;;24.90;13.98;;;;;;;26.22;16.95;99797.84;5072647;28;20451;-61
2023/04/23 07:24:17;;;;;;;18.38;13.93;;;;;;;26.23;16.60;99802.25;5075068;28;20039;-57
2023/04/23 07:26:44;;;;;;;27.00;13.35;;;;;;;26.16;16.61;99817.97;5092654;28;20040;-61
2023/04/23 07:29:10;;;;;;;22.52;13.38;;;;;;;26.08;17.04;99801.78;5093097;28;20503;-57
2023/04/23 07:31:36;;;;;;;23.23;12.07;;;;;;;26.39;16.59;99810.97;5092230;28;20024;-58
2023/04/23 07:34:02;;;;;;;23.63;12.00;;;;;;;26.91;16.32;99809.69;5092481;28;20027;-58
2023/04/23 07:36:27;;;;;;;24.17;13.10;;;;;;;27.55;15.53;99811.94;5074819;28;20021;-59
2023/04/23 07:38:53;;;;;;;26.30;13.55;;;;;;;28.51;14.95;99812.75;5092286;28;20032;-59
2023/04/23 07:41:19;;;;;;;22.02;13.07;;;;;;;29.32;14.25;99816.53;5091941;28;20393;-54
2023/04/23 07:43:45;;;;;;;20.42;12.57;;;;;;;29.51;13.92;99803.38;5092748;28;20510;-59
2023/04/23 07:46:10;;;;;;;21.83;11.82;;;;;;;30.16;13.78;99812.13;5092539;28;20028;-61
2023/04/23 07:48:36;;;;;;;20.40;11.15;;;;;;;31.20;13.22;99799.53;5092336;28;20106;-59
2023/04/23 07:51:01;;;;;;;20.05;11.57;;;;;;;33.60;11.41;99804.00;5074801;28;20060;-58
2023/04/23 07:53:27;;;;;;;21.73;12.75;;;;;;;35.55;10.18;99801.81;5076052;28;20031;-59
2023/04/23 07:55:55;;;;;;;21.17;12.07;;;;;;;37.32;9.20;99810.53;5092967;28;20386;-60
2023/04/23 07:58:21;;;;;;;16.13;9.48;;;;;;;37.19;8.43;99805.75;5075800;28;20035;-60
2023/04/23 08:00:47;;;;;;;13.40;6.20;;;;;;;36.90;8.41;99803.94;5093636;28;20420;-61
2023/04/23 08:03:12;;;;;;;11.73;7.07;;;;;;;36.63;8.66;99799.81;5093307;28;20438;-59
2023/04/23 08:05:39;;;;;;;13.30;7.57;;;;;;;35.85;8.99;99802.66;5092647;28;20053;-61
2023/04/23 08:08:07;;;;;;;10.55;4.20;;;;;;;35.05;8.74;99808.28;5092942;28;20032;-61
2023/04/23 08:10:35;;;;;;;8.93;4.40;;;;;;;34.18;9.06;99799.22;5075399;28;20040;-62
2023/04/23 08:13:01;;;;;;;8.15;3.80;;;;;;;33.12;9.66;99804.22;5074930;28;20024;-60
2023/04/23 08:15:27;;;;;;;12.60;3.50;;;;;;;31.62;10.36;99795.19;5091416;28;20098;-61
2023/04/23 08:17:53;;;;;;;4.65;2.40;;;;;;;30.01;11.52;99773.22;5091728;28;20024;-59
2023/04/23 08:20:18;;;;;;;6.32;2.70;;;;;;;28.61;12.33;99801.97;5091901;28;20024;-60
2023/04/23 08:22:44;;;;;;;7.75;3.10;;;;;;;27.38;13.39;99792.53;5092070;28;20032;-59
2023/04/23 08:25:11;;;;;;;5.63;3.20;;;;;;;26.35;14.36;99802.34;5091560;28;20016;-60
2023/04/23 08:27:37;;;;;;;5.40;2.63;;;;;;;25.56;14.70;99789.19;5091218;28;20056;-55
2023/04/23 08:30:04;;;;;;;4.57;2.17;;;;;;;25.09;14.95;99797.72;5091947;28;20108;-53
2023/04/23 08:32:30;;;;;;;6.93;2.40;;;;;;;24.80;15.47;99803.56;5091322;28;20024;-53
2023/04/23 08:34:57;;;;;;;3.17;2.15;;;;;;;24.56;15.60;99791.44;5090838;28;20063;-55
2023/04/23 08:37:23;;;;;;;7.28;2.78;;;;;;;24.20;16.01;99806.50;5089026;28;20039;-55
2023/04/23 08:39:48;;;;;;;5.75;2.38;;;;;;;23.88;15.97;99788.03;5091649;28;20052;-55
2023/04/23 08:42:34;;;;;;;5.90;2.42;;;;;;;24.06;15.84;99800.22;5092052;28;20024;-58
2023/04/23 08:45:01;;;;;;;3.03;1.60;;;;;;;23.82;15.62;99794.31;5090870;28;20032;-58
2023/04/23 08:47:31;;;;;;;3.92;1.38;;;;;;;23.82;15.60;99801.72;5092021;28;20047;-52
2023/04/23 08:49:58;;;;;;;4.18;1.50;;;;;;;23.88;15.23;99788.03;5092901;28;20038;-54
2023/04/23 08:52:25;;;;;;;2.17;1.30;;;;;;;24.00;14.96;99790.09;5091409;28;20028;-53
2023/04/23 08:54:59;;;;;;;3.00;0.88;;;;;;;24.10;14.60;99793.25;5091878;28;20339;-57
2023/04/23 08:57:25;;;;;;;2.95;1.30;;;;;;;24.08;14.71;99777.06;5092167;28;20028;-52
2023/04/23 08:59:52;;;;;;;5.53;2.00;;;;;;;24.24;15.71;99785.88;5092927;28;20035;-51
2023/04/23 09:02:18;;;;;;;11.30;2.10;;;;;;;24.25;15.31;99783.97;5092599;28;20093;-52
2023/04/23 09:04:47;;;;;;;7.07;1.92;;;;;;;24.26;15.22;99788.38;5092318;28;20096;-57
2023/04/23 09:07:14;;;;;;;7.63;2.03;;;;;;;24.16;15.86;99777.91;5092925;28;20416;-55
2023/04/23 09:09:40;;;;;;;6.80;1.83;;;;;;;23.89;15.81;99780.66;5092166;28;20032;-53
2023/04/23 09:12:07;;;;;;;7.75;1.73;;;;;;;23.35;16.18;99756.94;5057853;28;20458;-49
2023/04/23 09:14:34;;;;;;;3.80;2.05;;;;;;;23.00;16.88;99776.22;5074134;28;20027;-53
2023/04/23 09:17:01;;;;;;;4.15;1.90;;;;;;;22.62;17.42;99780.31;5092546;28;20059;-58
2023/04/23 09:19:27;;;;;;;4.07;2.20;;;;;;;22.48;17.57;99778.56;5092455;28;20504;-55
2023/04/23 09:21:53;;;;;;;4.07;1.60;;;;;;;22.46;17.66;99776.06;5074657;28;20028;-57
2023/04/23 09:24:22;;;;;;;4.88;2.00;;;;;;;22.38;17.67;99770.72;5091664;28;20032;-55
2023/04/23 09:26:50;;;;;;;6.15;1.70;;;;;;;22.00;17.79;99743.91;5092260;28;20114;-62
2023/04/23 09:29:22;;;;;;;5.95;1.67;;;;;;;22.11;17.61;99773.31;5092574;28;20050;-58
2023/04/23 09:31:51;;;;;;;5.70;2.00;;;;;;;22.06;17.69;99773.94;5092659;28;20118;-58
2023/04/23 09:34:24;;;;;;;4.15;1.70;;;;;;;21.98;17.95;99770.53;5092225;28;21441;-57
2023/04/23 09:36:51;;;;;;;6.10;1.95;;;;;;;21.79;18.24;99764.75;5092268;28;20031;-55
2023/04/23 09:39:21;;;;;;;3.92;2.10;;;;;;;21.83;17.99;99776.91;5092222;28;20044;-54
2023/04/23 09:41:47;;;;;;;4.05;2.17;;;;;;;21.76;18.29;99776.88;5092525;28;20028;-52
2023/04/23 09:44:17;;;;;;;4.45;1.55;;;;;;;21.82;18.17;99764.34;5092280;28;20043;-55
2023/04/23 09:46:44;;;;;;;2.75;1.45;;;;;;;21.85;18.12;99755.75;5074756;28;20115;-54
2023/04/23 09:49:12;;;;;;;6.43;1.80;;;;;;;22.03;18.39;99765.31;5092197;28;20040;-53
2023/04/23 09:51:39;;;;;;;5.78;1.77;;;;;;;22.16;17.65;99759.91;5074314;28;20093;-56
2023/04/23 09:54:20;;;;;;;5.13;1.63;;;;;;;22.38;17.77;99762.53;5091450;28;20032;-53
2023/04/23 09:56:52;;;;;;;3.25;1.60;;;;;;;22.34;17.56;99761.25;5038030;28;20047;-58
2023/04/23 09:59:25;;;;;;;4.60;2.28;;;;;;;22.07;18.04;99722.97;5080236;28;20082;-58
2023/04/23 10:01:52;;;;;;;4.60;1.60;;;;;;;22.15;18.08;99755.50;5074186;28;20028;-58
2023/04/23 10:04:24;;;;;;;7.80;1.70;;;;;;;22.23;17.70;99752.63;5095176;28;20446;-56
2023/04/23 10:06:57;;;;;;;4.45;1.67;;;;;;;22.39;17.78;99747.03;5061679;28;20131;-61
2023/04/23 10:09:24;;;;;;;3.92;1.90;;;;;;;22.33;17.80;99751.41;5095414;28;20040;-53
2023/04/23 10:11:53;;;;;;;3.55;1.85;;;;;;;22.36;17.95;99738.22;5095592;28;20040;-55
2023/04/23 10:14:20;;;;;;;2.47;1.58;;;;;;;22.30;17.78;99728.09;5096044;28;20079;-57
2023/04/23 10:16:49;;;;;;;5.72;1.80;;;;;;;22.30;17.54;99738.19;5096161;28;20031;-54
2023/04/23 10:19:18;;;;;;;3.50;1.42;;;;;;;22.22;17.80;99744.63;5077315;28;20024;-57
2023/04/23 10:21:48;;;;;;;3.97;1.42;;;;;;;22.10;17.68;99733.47;5095321;28;20426;-52
2023/04/23 10:24:19;;;;;;;11.73;1.67;;;;;;;22.04;17.68;99739.72;5095469;28;20032;-53
2023/04/23 10:26:45;;;;;;;5.47;1.73;;;;;;;21.85;17.63;99735.84;5095379;28;20031;-54
2023/04/23 10:29:15;;;;;;;5.47;1.90;;;;;;;21.76;18.03;99732.44;5077198;28;20058;-55
2023/04/23 10:31:41;;;;;;;3.70;1.80;;;;;;;21.72;18.23;99742.06;5095284;28;20472;-56
2023/04/23 10:34:09;;;;;;;5.88;1.90;;;;;;;21.82;17.89;99730.78;5095358;28;20024;-54
2023/04/23 10:36:36;;;;;;;4.97;1.80;;;;;;;21.94;18.15;99738.22;5077406;28;20028;-51
2023/04/23 10:39:06;;;;;;;4.93;2.00;;;;;;;21.98;17.57;99737.81;5076688;28;20316;-52
2023/04/23 10:41:36;;;;;;;2.25;1.60;;;;;;;21.87;17.93;99734.59;5077830;28;20036;-57
2023/04/23 10:44:06;;;;;;;5.90;2.50;;;;;;;21.76;18.27;99732.44;5077078;28;20035;-56
2023/04/23 10:46:33;;;;;;;8.38;2.22;;;;;;;21.68;18.51;99730.72;5095106;28;20028;-53
2023/04/23 10:49:07;;;;;;;6.50;2.15;;;;;;;21.70;18.19;99728.63;5093747;28;20047;-56
2023/04/23 10:51:38;;;;;;;6.37;2.30;;;;;;;21.56;18.24;99727.66;5094745;28;20462;-54
2023/04/23 10:54:03;;;;;;;5.43;1.75;;;;;;;21.48;18.53;99725.09;5095122;28;20259;-52
2023/04/23 10:56:30;;;;;;;3.72;1.92;;;;;;;21.40;18.55;99726.09;5094935;28;20115;-52
2023/04/23 10:58:55;;;;;;;5.00;1.70;;;;;;;21.33;18.64;99717.84;5094322;28;20032;-53
2023/04/23 11:01:27;;;;;;;5.80;2.45;;;;;;;21.40;19.01;99723.38;5094890;28;20032;-57
2023/04/23 11:03:52;;;;;;;2.53;1.65;;;;;;;21.34;18.83;99707.78;5095074;28;20027;-56
2023/04/23 11:06:40;;;;;;;5.38;1.70;;;;;;;21.40;18.72;99722.50;5094757;28;20024;-53
2023/04/23 11:09:27;;;;;;;7.65;2.10;;;;;;;21.49;18.81;99716.72;5093636;28;20028;-53
2023/04/23 11:11:58;;;;;;;4.35;1.65;;;;;;;21.48;18.93;99725.09;5076624;28;20097;-57
2023/04/23 11:14:49;;;;;;;5.07;1.92;;;;;;;21.55;18.56;99715.09;5075922;28;20072;-59
2023/04/23 11:17:23;;;;;;;5.30;1.88;;;;;;;21.32;18.89;99713.44;5094558;28;20128;-54
2023/04/23 11:20:09;;;;;;;2.20;1.48;;;;;;;21.36;19.03;99706.56;5094479;28;20048;-53
2023/04/23 11:22:51;;;;;;;6.75;1.95;;;;;;;21.32;19.00;99709.88;5094553;28;20358;-56
2023/04/23 11:25:27;;;;;;;7.95;1.90;;;;;;;21.18;19.23;99703.47;5094116;28;20040;-55